Ely, MN

5:15 PM CDT on September 20, 2017 (GMT -0500)
Ely Municipal

Weather History for KELO - February, 2013

Change the Weather History Date:

Monday, February 11, 2013

  Actual Average Record
Temperature  
Mean Temperature 20 °F -  
Max Temperature 24 °F 22 °F 44 °F (2005)
Min Temperature 15 °F 1 °F -32 °F (2008)
Degree Days  
Heating Degree Days 46    
Moisture  
Dew Point 16 °F    
Average Humidity 87    
Maximum Humidity 93    
Minimum Humidity 79    
Precipitation  
Precipitation 0.01 in - - ()
Sea Level Pressure  
Sea Level Pressure 29.62 in    
Wind  
Wind Speed 8 mph (NW)    
Max Wind Speed 17 mph    
Max Gust Speed 23 mph    
Visibility 7 miles    
Events Snow    
Averages and records for this station are not official NWS values.
T = Trace of Precipitation, MM = Missing Value Source: NWS Daily Summary

Daily Weather History Graph

Daily Weather History Graph

Search for Another Location

Airport or City:

Trip Planner

Search our weather history database for the weather conditions in past years. The results will help you decide how hot, cold, wet, or windy it might be!

Date:

Astronomy

Feb. 11, 2013 Rise Set
Actual Time 7:19 AM CST 5:24 PM CST
Civil Twilight 6:47 AM CST 5:56 PM CST
Nautical Twilight 6:10 AM CST 6:32 PM CST
Astronomical Twilight 5:35 AM CST 7:08 PM CST
Moon 7:33 AM CST (2/11) 7:34 PM CST (2/11)
Length of Visible Light 11h 09m
Length of Day
10h 04m
Waxing Crescent, 3% of the Moon is Illuminated
Feb 11
Waxing Crescent
Feb 17
First Quarter
Feb 25
Full
Mar 4
Last Quarter
Mar 11
New

Hourly Weather History & Observations

Time (CST) Temp. Windchill Dew Point Humidity Pressure Visibility Wind Dir Wind Speed Gust Speed Precip Events Conditions
12:13 AM 24.8 °F 16.9 °F 23.0 °F 93% 29.39 in 10.0 mi NNE 6.9 mph - N/A   Overcast
12:33 AM 24.8 °F 16.9 °F 23.0 °F 93% 29.39 in 10.0 mi NNE 6.9 mph - N/A   Overcast
12:52 AM 24.8 °F 17.9 °F 23.0 °F 93% 29.39 in 10.0 mi North 5.8 mph - N/A   Overcast
1:13 AM 24.8 °F 16.1 °F 23.0 °F 93% 29.38 in 7.0 mi North 8.1 mph - 0.01 in   Overcast
1:33 AM 24.8 °F 16.9 °F 23.0 °F 93% 29.39 in 5.0 mi North 6.9 mph - 0.01 in   Overcast
1:53 AM 24.8 °F 17.9 °F 23.0 °F 93% 29.39 in 4.0 mi North 5.8 mph - 0.01 in   Overcast
2:13 AM 24.8 °F 17.9 °F 21.2 °F 86% 29.39 in 4.0 mi North 5.8 mph - N/A Snow Light Snow
2:32 AM 24.8 °F 16.9 °F 21.2 °F 86% 29.39 in 5.0 mi North 6.9 mph - N/A   Overcast
2:53 AM 23.0 °F 13.9 °F 21.2 °F 93% 29.39 in 10.0 mi North 8.1 mph - N/A   Overcast
3:13 AM 23.0 °F 14.7 °F 21.2 °F 93% 29.39 in 10.0 mi North 6.9 mph 19.6 mph N/A   Overcast
3:33 AM 23.0 °F 13.9 °F 21.2 °F 93% 29.40 in 10.0 mi North 8.1 mph - N/A   Overcast
3:53 AM 21.2 °F 12.6 °F 19.4 °F 93% 29.41 in 10.0 mi North 6.9 mph - N/A   Overcast
4:12 AM 21.2 °F 13.6 °F 19.4 °F 93% 29.42 in 10.0 mi North 5.8 mph - N/A Snow Light Snow
4:33 AM 21.2 °F 13.6 °F 19.4 °F 93% 29.42 in 10.0 mi North 5.8 mph 16.1 mph N/A Snow Light Snow
4:53 AM 21.2 °F 11.7 °F 19.4 °F 93% 29.43 in 5.0 mi NNW 8.1 mph - N/A Snow Light Snow
5:12 AM 21.2 °F 11.7 °F 19.4 °F 93% 29.44 in 7.0 mi NNW 8.1 mph 17.3 mph N/A Snow Light Snow
5:33 AM 21.2 °F 13.6 °F 19.4 °F 93% 29.45 in 10.0 mi NNW 5.8 mph - N/A Snow Light Snow
5:53 AM 21.2 °F 10.9 °F 19.4 °F 93% 29.46 in 7.0 mi NNW 9.2 mph - N/A Snow Light Snow
6:12 AM 21.2 °F 11.7 °F 19.4 °F 93% 29.47 in 7.0 mi NNW 8.1 mph - N/A Snow Light Snow
6:33 AM 21.2 °F 11.7 °F 19.4 °F 93% 29.48 in 2.5 mi NNW 8.1 mph - N/A Snow Light Snow
6:53 AM 21.2 °F 11.7 °F 19.4 °F 93% 29.49 in 1.8 mi NW 8.1 mph - N/A Snow Light Snow
7:12 AM 19.4 °F 8.6 °F 17.6 °F 93% 29.50 in 1.8 mi NNW 9.2 mph 17.3 mph N/A Snow Light Snow
7:33 AM 19.4 °F 8.6 °F 17.6 °F 93% 29.51 in 1.2 mi NNW 9.2 mph 18.4 mph N/A Snow Light Snow
7:53 AM 19.4 °F 8.6 °F 17.6 °F 93% 29.52 in 1.5 mi NNW 9.2 mph 16.1 mph N/A Snow Light Snow
8:13 AM 19.4 °F 7.9 °F 15.8 °F 86% 29.53 in 2.5 mi NNW 10.4 mph - N/A Snow Light Snow
8:33 AM 19.4 °F 7.2 °F 15.8 °F 86% 29.54 in 3.0 mi NNW 11.5 mph 19.6 mph N/A Snow Light Snow
8:53 AM 17.6 °F 6.4 °F 15.8 °F 93% 29.55 in 2.5 mi NNW 9.2 mph 21.9 mph N/A Snow Light Snow
9:13 AM 19.4 °F 7.9 °F 15.8 °F 86% 29.55 in 1.8 mi NNW 10.4 mph 16.1 mph N/A Snow Light Snow
9:32 AM 19.4 °F 7.9 °F 14.0 °F 80% 29.56 in 4.0 mi NNW 10.4 mph 18.4 mph N/A Snow Light Snow
9:53 AM 19.4 °F 7.2 °F 14.0 °F 80% 29.57 in 4.0 mi NNW 11.5 mph 20.7 mph N/A Snow Light Snow
10:13 AM 19.4 °F 9.5 °F 15.8 °F 86% 29.58 in 4.0 mi NNW 8.1 mph 16.1 mph N/A Snow Light Snow
10:32 AM 19.4 °F 8.6 °F 15.8 °F 86% 29.59 in 4.0 mi NW 9.2 mph 19.6 mph N/A Snow Light Snow
10:53 AM 19.4 °F 9.5 °F 14.0 °F 80% 29.60 in 5.0 mi NNW 8.1 mph 23.0 mph N/A Snow Light Snow
11:13 AM 19.4 °F 5.5 °F 14.0 °F 80% 29.61 in 2.5 mi NW 15.0 mph 23.0 mph N/A Snow Light Snow
11:32 AM 19.4 °F 7.2 °F 14.0 °F 80% 29.61 in 5.0 mi NW 11.5 mph 19.6 mph N/A Snow Light Snow
11:53 AM 19.4 °F 8.6 °F 14.0 °F 80% 29.62 in 10.0 mi NW 9.2 mph 19.6 mph N/A   Mostly Cloudy
12:12 PM 19.4 °F 6.0 °F 14.0 °F 80% 29.62 in 5.0 mi NW 13.8 mph 19.6 mph N/A Snow Light Snow
12:33 PM 19.4 °F 5.5 °F 14.0 °F 80% 29.63 in 10.0 mi NW 15.0 mph 23.0 mph N/A Snow Light Snow
12:53 PM 19.4 °F 7.9 °F 14.0 °F 80% 29.64 in 4.0 mi NW 10.4 mph 19.6 mph N/A Snow Light Snow
1:13 PM 19.4 °F 6.0 °F 14.0 °F 80% 29.65 in 3.0 mi NW 13.8 mph 20.7 mph N/A Snow Light Snow
1:33 PM 19.4 °F 6.6 °F 14.0 °F 80% 29.66 in 4.0 mi NW 12.7 mph 21.9 mph N/A Snow Light Snow
1:53 PM 19.4 °F 4.5 °F 14.0 °F 80% 29.66 in 7.0 mi NW 17.3 mph 21.9 mph N/A Snow Light Snow
2:13 PM 19.4 °F 7.9 °F 14.0 °F 80% 29.67 in 10.0 mi WNW 10.4 mph 17.3 mph N/A Snow Light Snow
2:33 PM 19.4 °F 7.2 °F 14.0 °F 80% 29.68 in 10.0 mi NW 11.5 mph 19.6 mph N/A Snow Light Snow
2:53 PM 19.4 °F 5.0 °F 14.0 °F 80% 29.69 in 7.0 mi WNW 16.1 mph 21.9 mph N/A Snow Light Snow
3:13 PM 19.4 °F 7.9 °F 14.0 °F 80% 29.71 in 5.0 mi WNW 10.4 mph 21.9 mph N/A Snow Light Snow
3:33 PM 19.4 °F 8.6 °F 14.0 °F 80% 29.72 in 5.0 mi NW 9.2 mph 19.6 mph N/A Snow Light Snow
3:53 PM 19.4 °F 8.6 °F 15.8 °F 86% 29.73 in 5.0 mi NW 9.2 mph 17.3 mph N/A Snow Light Snow
4:53 PM 17.6 °F 8.2 °F 14.0 °F 86% 29.75 in 7.0 mi WNW 6.9 mph - N/A Snow Light Snow
5:13 PM 17.6 °F 9.3 °F 14.0 °F 86% 29.77 in 7.0 mi NW 5.8 mph - N/A Snow Light Snow
5:33 PM 17.6 °F 7.3 °F 14.0 °F 86% 29.77 in 5.0 mi WNW 8.1 mph - N/A Snow Light Snow
5:53 PM 17.6 °F 7.3 °F 14.0 °F 86% 29.78 in 10.0 mi WNW 8.1 mph - N/A Snow Light Snow
6:13 PM 17.6 °F 8.2 °F 14.0 °F 86% 29.79 in 10.0 mi WNW 6.9 mph - N/A Snow Light Snow
6:32 PM 17.6 °F 8.2 °F 14.0 °F 86% 29.79 in 10.0 mi NW 6.9 mph - N/A   Overcast
6:53 PM 17.6 °F 6.4 °F 12.2 °F 79% 29.80 in 10.0 mi WNW 9.2 mph - N/A Snow Light Snow
7:12 PM 17.6 °F 6.4 °F 12.2 °F 79% 29.81 in 10.0 mi NW 9.2 mph 18.4 mph N/A Snow Light Snow
7:33 PM 17.6 °F 10.7 °F 12.2 °F 79% 29.82 in 10.0 mi NW 4.6 mph - N/A Snow Light Snow
7:53 PM 17.6 °F 7.3 °F 12.2 °F 79% 29.82 in 10.0 mi NW 8.1 mph - N/A Snow Light Snow
8:12 PM 17.6 °F 12.3 °F 14.0 °F 86% 29.83 in 10.0 mi WNW 3.5 mph - N/A Snow Light Snow
8:33 PM 17.6 °F 12.3 °F 12.2 °F 79% 29.83 in 7.0 mi WNW 3.5 mph - N/A Snow Light Snow
8:53 PM 17.6 °F 12.3 °F 14.0 °F 86% 29.84 in 7.0 mi West 3.5 mph - N/A Snow Light Snow
9:12 PM 17.6 °F 10.7 °F 14.0 °F 86% 29.84 in 7.0 mi West 4.6 mph - N/A Snow Light Snow
9:33 PM 17.6 °F 12.3 °F 14.0 °F 86% 29.84 in 10.0 mi WNW 3.5 mph - N/A Snow Light Snow
9:53 PM 15.8 °F 10.2 °F 12.2 °F 86% 29.84 in 10.0 mi West 3.5 mph - N/A Snow Light Snow
10:12 PM 15.8 °F 10.2 °F 12.2 °F 86% 29.84 in 10.0 mi WSW 3.5 mph - N/A   Overcast
10:33 PM 15.8 °F 10.2 °F 12.2 °F 86% 29.84 in 10.0 mi WSW 3.5 mph - N/A Snow Light Snow
10:53 PM 15.8 °F 10.2 °F 12.2 °F 86% 29.84 in 3.0 mi West 3.5 mph - N/A Snow Light Snow
11:13 PM 15.8 °F 8.6 °F 14.0 °F 93% 29.84 in 10.0 mi West 4.6 mph - N/A Snow Light Snow
11:33 PM 15.8 °F 10.2 °F 14.0 °F 93% 29.84 in 7.0 mi WSW 3.5 mph - N/A Snow Light Snow
11:52 PM 15.8 °F - 12.2 °F 86% 29.84 in 5.0 mi Calm Calm - N/A Snow Light Snow